createdAt,value
2023-04-01T00:00:58.740Z,11.00
2023-04-01T00:03:28.276Z,11.00
2023-04-01T00:05:56.181Z,11.00
2023-04-01T00:08:23.537Z,11.10
2023-04-01T00:10:50.691Z,11.00
2023-04-01T00:13:17.709Z,11.00
2023-04-01T00:15:45.117Z,11.00
2023-04-01T00:18:42.290Z,11.00
2023-04-01T00:21:09.119Z,11.00
2023-04-01T00:23:46.272Z,11.00
2023-04-01T00:26:13.709Z,11.00
2023-04-01T00:28:42.835Z,11.00
2023-04-01T00:31:10.653Z,11.00
2023-04-01T00:33:38.226Z,11.00
2023-04-01T00:36:09.841Z,11.00
2023-04-01T00:38:37.269Z,11.00
2023-04-01T00:41:06.977Z,11.00
2023-04-01T00:43:34.550Z,11.00
2023-04-01T00:46:01.504Z,11.00
2023-04-01T00:48:48.341Z,11.00
2023-04-01T00:51:24.274Z,11.00
2023-04-01T00:53:53.637Z,11.00
2023-04-01T00:56:23.873Z,11.00
2023-04-01T00:58:53.190Z,11.00
2023-04-01T01:01:21.416Z,11.00
2023-04-01T01:03:49.446Z,11.00
2023-04-01T01:06:30.414Z,11.00
2023-04-01T01:09:00.609Z,11.00
2023-04-01T01:11:40.919Z,10.90
2023-04-01T01:14:15.814Z,10.90
2023-04-01T01:16:47.720Z,10.90
2023-04-01T01:19:33.670Z,10.90
2023-04-01T01:22:07.674Z,10.90
2023-04-01T01:24:46.970Z,11.00
2023-04-01T01:27:17.533Z,10.90
2023-04-01T01:30:11.157Z,10.90
2023-04-01T01:33:07.051Z,10.90
2023-04-01T01:35:35.453Z,10.90
2023-04-01T01:38:08.889Z,11.00
2023-04-01T01:40:36.985Z,10.90
2023-04-01T01:43:06.149Z,10.90
2023-04-01T01:45:34.258Z,10.90
2023-04-01T01:48:02.973Z,10.90
2023-04-01T01:50:30.250Z,10.90
2023-04-01T01:53:02.139Z,10.90
2023-04-01T01:55:31.253Z,10.90
2023-04-01T01:58:00.626Z,10.90
2023-04-01T02:00:28.877Z,10.90
2023-04-01T02:02:56.892Z,10.90
2023-04-01T02:05:31.835Z,10.90
2023-04-01T02:08:08.941Z,10.90
2023-04-01T02:10:38.665Z,10.90
2023-04-01T02:13:17.944Z,11.00
2023-04-01T02:15:47.138Z,10.90
2023-04-01T02:18:15.588Z,10.90
2023-04-01T02:20:42.862Z,10.90
2023-04-01T02:23:11.236Z,10.90
2023-04-01T02:25:39.279Z,10.90
2023-04-01T02:28:07.546Z,10.80
2023-04-01T02:30:40.305Z,10.90
2023-04-01T02:33:08.359Z,10.80
2023-04-01T02:35:37.376Z,10.80
2023-04-01T02:38:04.877Z,10.80
2023-04-01T02:40:41.592Z,10.90
2023-04-01T02:43:08.555Z,10.80
2023-04-01T02:45:36.385Z,10.90
2023-04-01T02:48:12.732Z,10.90
2023-04-01T02:50:40.817Z,10.80
2023-04-01T02:53:07.876Z,10.80
2023-04-01T02:55:35.901Z,10.80
2023-04-01T02:58:02.932Z,10.80
2023-04-01T03:00:30.702Z,10.70
2023-04-01T03:03:01.294Z,10.70
2023-04-01T03:05:29.058Z,10.80
2023-04-01T03:07:56.187Z,10.80
2023-04-01T03:10:23.496Z,10.80
2023-04-01T03:12:50.357Z,10.80
2023-04-01T03:15:17.782Z,10.80
2023-04-01T03:17:44.782Z,10.80
2023-04-01T03:20:12.255Z,10.80
2023-04-01T03:22:42.688Z,10.70
2023-04-01T03:25:11.019Z,10.70
2023-04-01T03:27:38.757Z,10.80
2023-04-01T03:30:07.808Z,10.70
2023-04-01T03:32:41.062Z,10.70
2023-04-01T03:35:08.241Z,10.70
2023-04-01T03:37:35.382Z,10.70
2023-04-01T03:40:02.285Z,10.70
2023-04-01T03:42:29.206Z,10.60
2023-04-01T03:44:56.113Z,10.70
2023-04-01T03:47:26.196Z,10.60
2023-04-01T03:49:53.199Z,10.70
2023-04-01T03:52:20.194Z,10.70
2023-04-01T03:54:47.075Z,10.70
2023-04-01T03:57:14.341Z,10.70
2023-04-01T03:59:41.725Z,10.70
2023-04-01T04:02:08.676Z,10.70
2023-04-01T04:04:36.584Z,10.70
2023-04-01T04:07:03.738Z,10.70
2023-04-01T04:09:40.715Z,10.60
2023-04-01T04:12:07.535Z,10.70
2023-04-01T04:14:34.558Z,10.70
2023-04-01T04:17:01.534Z,10.70
2023-04-01T04:19:32.302Z,10.70
2023-04-01T04:22:01.655Z,10.70
2023-04-01T04:24:29.947Z,10.70
2023-04-01T04:27:06.630Z,10.70
2023-04-01T04:29:34.624Z,10.70
2023-04-01T04:32:01.745Z,10.70
2023-04-01T04:34:28.775Z,10.70
2023-04-01T04:36:55.678Z,10.80
2023-04-01T04:39:25.465Z,10.80
2023-04-01T04:41:52.565Z,10.80
2023-04-01T04:44:19.674Z,10.80
2023-04-01T04:46:46.587Z,10.80
2023-04-01T04:49:15.540Z,10.80
2023-04-01T04:51:42.721Z,10.80
2023-04-01T04:54:09.906Z,10.80
2023-04-01T04:56:54.122Z,10.80
2023-04-01T04:59:22.429Z,10.80
2023-04-01T05:02:12.540Z,10.80
2023-04-01T05:04:39.479Z,10.80
2023-04-01T05:07:09.840Z,10.80
2023-04-01T05:09:59.720Z,10.90
2023-04-01T05:12:27.703Z,10.80
2023-04-01T05:15:04.135Z,10.80
2023-04-01T05:17:36.994Z,10.90
2023-04-01T05:20:05.114Z,10.80
2023-04-01T06:15:53.315Z,9.20
2023-04-01T06:30:08.366Z,9.00
2023-04-01T06:43:39.585Z,8.80
2023-04-01T06:46:46.961Z,8.80
2023-04-01T06:49:47.718Z,8.70
2023-04-01T06:52:40.801Z,8.60
2023-04-01T06:55:35.196Z,8.60
2023-04-01T06:58:49.821Z,8.50
2023-04-01T07:02:31.132Z,8.40
2023-04-01T07:04:56.670Z,8.40
2023-04-01T07:08:09.522Z,8.40
2023-04-01T07:10:44.906Z,8.30
2023-04-01T07:13:42.163Z,8.20
2023-04-01T07:20:21.702Z,8.10
2023-04-01T07:22:50.313Z,8.10
2023-04-01T07:25:29.216Z,8.20
2023-04-01T07:28:16.580Z,8.20
2023-04-01T07:31:06.197Z,8.10
2023-04-01T07:33:42.250Z,8.00
2023-04-01T07:36:15.140Z,7.90
2023-04-01T07:38:48.617Z,7.80
2023-04-01T07:45:55.634Z,7.80
2023-04-01T07:49:29.202Z,7.90
2023-04-01T07:52:00.399Z,8.00
2023-04-01T07:54:51.732Z,7.90
2023-04-01T07:57:24.292Z,8.00
2023-04-01T08:00:08.946Z,8.00
2023-04-01T08:02:45.967Z,7.90
2023-04-01T08:05:32.683Z,7.80
2023-04-01T08:08:01.691Z,7.70
2023-04-01T08:11:08.833Z,7.80
2023-04-01T08:14:17.886Z,7.80
2023-04-01T08:17:25.789Z,7.70
2023-04-01T08:19:53.193Z,7.80
2023-04-01T08:22:23.734Z,7.70
2023-04-01T08:24:52.549Z,7.60
2023-04-01T08:27:27.721Z,7.60
2023-04-01T08:30:00.585Z,7.50
2023-04-01T08:32:31.749Z,7.50
2023-04-01T08:35:18.610Z,7.60
2023-04-01T08:37:48.242Z,7.70
2023-04-01T08:40:38.076Z,7.60
2023-04-01T08:43:10.395Z,7.60
2023-04-01T08:45:56.401Z,7.50
2023-04-01T08:48:26.766Z,7.50
2023-04-01T08:51:05.973Z,7.50
2023-04-01T08:53:51.329Z,7.50
2023-04-01T08:56:40.276Z,7.40
2023-04-01T08:59:31.327Z,7.30
2023-04-01T09:02:10.854Z,7.30
2023-04-01T09:05:06.591Z,7.40
2023-04-01T09:07:46.610Z,7.40
2023-04-01T09:10:23.125Z,7.40
2023-04-01T09:12:53.428Z,7.50
2023-04-01T09:15:49.854Z,7.50
2023-04-01T09:18:25.565Z,7.60
2023-04-01T09:21:11.634Z,7.60
2023-04-01T09:23:41.769Z,7.50
2023-04-01T09:26:09.896Z,7.50
2023-04-01T09:28:57.424Z,7.40
2023-04-01T09:31:32.833Z,7.40
2023-04-01T09:34:36.834Z,7.40
2023-04-01T09:37:05.146Z,7.50
2023-04-01T09:39:40.885Z,7.40
2023-04-01T09:42:19.373Z,7.40
2023-04-01T09:45:01.861Z,7.30
2023-04-01T09:47:48.239Z,7.40
2023-04-01T09:50:18.370Z,7.40
2023-04-01T09:52:46.512Z,7.40
2023-04-01T09:55:22.994Z,7.40
2023-04-01T09:57:49.935Z,7.50
2023-04-01T10:00:46.243Z,7.40
2023-04-01T10:03:19.232Z,7.50
2023-04-01T10:05:46.223Z,7.50
2023-04-01T10:08:33.610Z,7.50
2023-04-01T10:11:12.666Z,7.40
2023-04-01T10:13:58.930Z,7.40
2023-04-01T10:16:30.757Z,7.50
2023-04-01T10:19:16.936Z,7.50
2023-04-01T10:22:11.702Z,7.50
2023-04-01T10:24:53.322Z,7.50
2023-04-01T10:27:20.934Z,7.50
2023-04-01T10:30:19.284Z,7.40
2023-04-01T10:33:05.988Z,7.50
2023-04-01T10:35:48.806Z,7.50
2023-04-01T10:38:28.399Z,7.50
2023-04-01T10:41:12.134Z,7.50
2023-04-01T10:44:07.176Z,7.50
2023-04-01T10:46:52.749Z,7.60
2023-04-01T10:49:33.901Z,7.60
2023-04-01T10:52:22.173Z,7.60
2023-04-01T10:55:34.580Z,7.60
2023-04-01T10:58:22.077Z,7.60
2023-04-01T11:01:43.781Z,7.50
2023-04-01T11:08:21.721Z,7.60
2023-04-01T11:14:10.014Z,7.60
2023-04-01T11:16:59.498Z,7.60
2023-04-01T11:19:50.095Z,7.60
2023-04-01T11:22:24.623Z,7.60
2023-04-01T11:25:14.220Z,7.70
2023-04-01T11:28:13.823Z,7.70
2023-04-01T11:31:03.426Z,7.70
2023-04-01T11:33:51.873Z,7.70
2023-04-01T11:36:37.757Z,7.70
2023-04-01T11:39:22.937Z,7.60
2023-04-01T11:42:05.038Z,7.50
2023-04-01T11:45:15.468Z,7.50
2023-04-01T11:47:50.761Z,7.60
2023-04-01T11:50:44.531Z,7.50
2023-04-01T11:53:40.690Z,7.40
2023-04-01T11:56:13.763Z,7.30
2023-04-01T11:59:10.500Z,7.40
2023-04-01T12:01:46.193Z,7.30
2023-04-01T12:04:31.778Z,7.40
2023-04-01T12:07:19.173Z,7.40
2023-04-01T12:10:03.211Z,7.50
2023-04-01T12:13:00.016Z,7.50
2023-04-01T12:15:38.419Z,7.50
2023-04-01T12:18:18.442Z,7.50
2023-04-01T12:21:03.717Z,7.60
2023-04-01T12:24:03.034Z,7.60
2023-04-01T12:26:48.417Z,7.40
2023-04-01T12:29:35.927Z,7.30
2023-04-01T12:32:11.227Z,7.20
2023-04-01T12:34:44.240Z,7.20
2023-04-01T12:37:14.140Z,7.10
2023-04-01T12:39:40.926Z,7.10
2023-04-01T12:42:14.897Z,7.10
2023-04-01T12:45:02.250Z,7.10
2023-04-01T12:47:35.432Z,7.10
2023-04-01T12:50:34.861Z,7.10
2023-04-01T12:53:13.807Z,7.20
2023-04-01T12:55:45.408Z,7.20
2023-04-01T12:58:21.789Z,7.10
2023-04-01T13:01:03.083Z,7.20
2023-04-01T13:03:39.182Z,7.20
2023-04-01T13:06:09.086Z,7.20
2023-04-01T13:08:37.900Z,7.20
2023-04-01T13:11:11.636Z,7.10
2023-04-01T13:13:51.361Z,7.10
2023-04-01T13:16:24.166Z,7.20
2023-04-01T13:18:54.257Z,7.20
2023-04-01T13:21:44.509Z,7.20
2023-04-01T13:24:26.531Z,7.20
2023-04-01T13:26:56.412Z,7.20
2023-04-01T13:29:34.151Z,7.10
2023-04-01T13:32:11.991Z,7.00
2023-04-01T13:34:58.184Z,6.90
2023-04-01T13:37:50.001Z,6.90
2023-04-01T13:40:19.918Z,6.90
2023-04-01T13:42:58.046Z,6.90
2023-04-01T13:45:51.318Z,6.90
2023-04-01T13:48:43.819Z,6.90
2023-04-01T13:51:24.210Z,7.00
2023-04-01T13:54:06.699Z,6.80
2023-04-01T13:56:59.599Z,6.80
2023-04-01T13:59:31.860Z,6.80
2023-04-01T14:01:58.594Z,6.90
2023-04-01T14:04:25.391Z,6.80
2023-04-01T14:07:11.136Z,6.80
2023-04-01T14:09:53.782Z,6.80
2023-04-01T14:12:27.567Z,6.80
2023-04-01T14:15:19.447Z,6.80
2023-04-01T14:17:54.998Z,6.90
2023-04-01T14:20:28.880Z,6.90
2023-04-01T14:23:06.273Z,6.90
2023-04-01T14:25:51.755Z,6.80
2023-04-01T14:28:19.309Z,6.80
2023-04-01T14:30:50.363Z,6.70
2023-04-01T14:33:32.826Z,6.70
2023-04-01T14:36:02.756Z,6.70
2023-04-01T14:38:52.986Z,6.60
2023-04-01T14:41:22.348Z,6.60
2023-04-01T14:43:49.784Z,6.50
2023-04-01T14:46:35.393Z,6.50
2023-04-01T14:49:15.363Z,6.50
2023-04-01T14:51:42.480Z,6.50
2023-04-01T14:54:09.203Z,6.40
2023-04-01T14:56:37.056Z,6.40
2023-04-01T14:59:08.028Z,6.40
2023-04-01T15:01:48.936Z,6.40
2023-04-01T15:04:34.798Z,6.30
2023-04-01T15:07:01.632Z,6.40
2023-04-01T15:09:29.585Z,6.30
2023-04-01T15:12:12.140Z,6.30
2023-04-01T15:14:52.414Z,6.30
2023-04-01T15:17:24.026Z,6.30
2023-04-01T15:20:09.074Z,6.30
2023-04-01T15:22:55.235Z,6.30
2023-04-01T15:25:31.464Z,6.30
2023-04-01T15:27:58.425Z,6.30
2023-04-01T15:30:30.039Z,6.20
2023-04-01T15:33:06.104Z,6.30
2023-04-01T15:35:43.555Z,6.30
2023-04-01T15:38:33.103Z,6.30
2023-04-01T15:41:06.032Z,6.20
2023-04-01T15:43:49.927Z,6.30
2023-04-01T15:46:35.877Z,6.30
2023-04-01T15:49:27.632Z,6.30
2023-04-01T15:52:03.783Z,6.30
2023-04-01T15:54:49.384Z,6.30
2023-04-01T15:57:25.533Z,6.20
2023-04-01T15:59:55.827Z,6.20
2023-04-01T16:02:26.213Z,6.10
2023-04-01T16:04:59.066Z,6.10
2023-04-01T16:07:38.010Z,6.10
2023-04-01T16:10:08.121Z,6.10
2023-04-01T16:12:37.918Z,6.10
2023-04-01T16:15:16.915Z,6.00
2023-04-01T16:18:06.964Z,5.90
2023-04-01T16:20:52.565Z,5.90
2023-04-01T16:23:23.426Z,5.90
2023-04-01T16:25:58.784Z,5.90
2023-04-01T16:28:31.509Z,5.70
2023-04-01T16:31:18.440Z,5.70
2023-04-01T16:34:03.021Z,5.70
2023-04-01T16:36:30.453Z,5.80
2023-04-01T16:39:16.287Z,5.80
2023-04-01T16:41:50.247Z,5.80
2023-04-01T16:44:24.173Z,5.80
2023-04-01T16:46:57.916Z,5.70
2023-04-01T16:49:36.911Z,5.60
2023-04-01T16:52:03.613Z,5.60
2023-04-01T16:54:40.705Z,5.60
2023-04-01T16:57:10.705Z,5.60
2023-04-01T16:59:38.884Z,5.60
2023-04-01T17:02:09.854Z,5.60
2023-04-01T17:04:47.962Z,5.70
2023-04-01T17:07:33.415Z,5.70
2023-04-01T17:10:11.277Z,5.70
2023-04-01T17:12:46.258Z,5.70
2023-04-01T17:15:19.548Z,5.60
2023-04-01T17:17:47.090Z,5.60
2023-04-01T17:20:20.090Z,5.50
2023-04-01T17:22:49.886Z,5.50
2023-04-01T17:25:42.054Z,5.60
2023-04-01T17:28:12.046Z,5.50
2023-04-01T17:30:38.825Z,5.50
2023-04-01T17:33:25.930Z,5.50
2023-04-01T17:35:52.978Z,5.50
2023-04-01T17:38:27.342Z,5.60
2023-04-01T17:40:58.651Z,5.50
2023-04-01T17:43:28.433Z,5.40
2023-04-01T17:46:02.412Z,5.40
2023-04-01T17:48:55.858Z,5.40
2023-04-01T17:51:25.898Z,5.40
2023-04-01T17:54:11.499Z,5.40
2023-04-01T17:56:51.042Z,5.40
2023-04-01T17:59:32.736Z,5.30
2023-04-01T18:02:04.817Z,5.30
2023-04-01T18:04:33.821Z,5.30
2023-04-01T18:07:09.732Z,5.20
2023-04-01T18:09:46.606Z,5.20
2023-04-01T18:12:13.386Z,5.20
2023-04-01T18:15:09.715Z,5.20
2023-04-01T18:17:48.493Z,5.30
2023-04-01T18:20:21.478Z,5.30
2023-04-01T18:22:54.630Z,5.30
2023-04-01T18:25:41.486Z,5.20
2023-04-01T18:28:32.312Z,5.30
2023-04-01T18:31:02.183Z,5.30
2023-04-01T18:33:48.715Z,5.40
2023-04-01T18:36:27.730Z,5.40
2023-04-01T18:38:54.499Z,5.40
2023-04-01T18:41:22.261Z,5.30
2023-04-01T18:43:57.751Z,5.30
2023-04-01T18:46:31.217Z,5.20
2023-04-01T18:48:57.972Z,5.20
2023-04-01T18:51:43.776Z,5.20
2023-04-01T18:54:27.174Z,5.30
2023-04-01T18:57:01.821Z,5.30
2023-04-01T18:59:35.677Z,5.30
2023-04-01T19:02:05.458Z,5.10
2023-04-01T19:04:40.981Z,5.00
2023-04-01T19:07:27.648Z,5.00
2023-04-01T19:09:57.687Z,5.00
2023-04-01T19:12:43.471Z,5.10
2023-04-01T19:15:10.457Z,5.10
2023-04-01T19:17:37.307Z,5.10
2023-04-01T19:20:13.410Z,5.00
2023-04-01T19:23:04.514Z,5.00
2023-04-01T19:25:32.555Z,5.00
2023-04-01T19:28:03.736Z,5.00
2023-04-01T19:30:33.890Z,5.10
2023-04-01T19:33:20.834Z,5.00
2023-04-01T19:35:47.869Z,5.00
2023-04-01T19:38:27.543Z,5.00
2023-04-01T19:41:17.477Z,5.00
2023-04-01T19:44:04.763Z,5.00
2023-04-01T19:46:37.756Z,5.00
2023-04-01T19:49:10.717Z,4.90
2023-04-01T19:51:56.553Z,4.90
2023-04-01T19:54:28.505Z,4.80
2023-04-01T19:57:04.425Z,4.70
2023-04-01T19:59:36.555Z,4.60
2023-04-01T20:02:09.671Z,4.50
2023-04-01T20:04:42.691Z,4.50
2023-04-01T20:07:24.964Z,4.40
2023-04-01T20:09:58.039Z,4.30
2023-04-01T20:12:35.703Z,4.40
2023-04-01T20:15:20.125Z,4.30
2023-04-01T20:17:51.568Z,4.40
2023-04-01T20:20:24.807Z,4.40
2023-04-01T20:23:07.291Z,4.30
2023-04-01T20:25:40.850Z,4.30
2023-04-01T20:28:13.162Z,4.40
2023-04-01T20:30:55.993Z,4.40
2023-04-01T20:33:27.491Z,4.40
2023-04-01T20:36:09.706Z,4.40
2023-04-01T20:38:39.691Z,4.40
2023-04-01T20:41:17.386Z,4.40
2023-04-01T20:43:52.394Z,4.40
2023-04-01T20:46:40.958Z,4.40
2023-04-01T20:49:37.583Z,4.30
2023-04-01T20:52:07.415Z,4.20
2023-04-01T20:54:34.678Z,4.20
2023-04-01T20:57:09.920Z,4.10
2023-04-01T20:59:42.929Z,4.00
2023-04-01T21:02:23.893Z,3.90
2023-04-01T21:05:09.546Z,3.80
2023-04-01T21:07:45.698Z,3.80
2023-04-01T21:10:33.001Z,3.80
2023-04-01T21:13:19.011Z,3.80
2023-04-01T21:15:52.470Z,3.70
2023-04-01T21:18:39.708Z,3.80
2023-04-01T21:21:27.957Z,3.70
2023-04-01T21:23:55.750Z,3.80
2023-04-01T21:26:44.598Z,3.60
2023-04-01T21:29:19.998Z,3.60
2023-04-01T21:31:53.308Z,3.60
2023-04-01T21:34:47.778Z,3.60
2023-04-01T21:37:24.857Z,3.60
2023-04-01T21:39:51.721Z,3.50
2023-04-01T21:42:30.989Z,3.50
2023-04-01T21:45:18.357Z,3.50
2023-04-01T21:47:59.112Z,3.50
2023-04-01T21:50:41.574Z,3.50
2023-04-01T21:53:27.381Z,3.50
2023-04-01T21:56:18.931Z,3.50
2023-04-01T21:59:13.150Z,3.50
2023-04-01T22:02:04.693Z,3.50
2023-04-01T22:04:59.923Z,3.40
2023-04-01T22:07:46.617Z,3.30
2023-04-01T22:10:17.573Z,3.30
2023-04-01T22:12:49.928Z,3.30
2023-04-01T22:15:21.141Z,3.30
2023-04-01T22:18:15.300Z,3.30
2023-04-01T22:20:49.335Z,3.30
2023-04-01T22:23:40.664Z,3.30
2023-04-01T22:26:15.650Z,3.30
2023-04-01T22:28:48.659Z,3.20
2023-04-01T22:31:23.694Z,3.30
2023-04-01T22:33:58.190Z,3.30
2023-04-01T22:36:56.477Z,3.20
2023-04-01T22:39:38.139Z,3.20
2023-04-01T22:42:24.187Z,3.10
2023-04-01T22:45:07.136Z,3.20
2023-04-01T22:47:40.318Z,3.20
2023-04-01T22:50:23.338Z,3.00
2023-04-01T22:52:55.982Z,3.00
2023-04-01T22:55:31.058Z,3.00
2023-04-01T22:58:05.851Z,2.90
2023-04-01T23:00:38.832Z,2.90
2023-04-01T23:03:17.686Z,3.00
2023-04-01T23:05:48.560Z,2.90
2023-04-01T23:08:34.185Z,2.90
2023-04-01T23:11:03.485Z,2.80
2023-04-01T23:13:33.144Z,2.90
2023-04-01T23:16:00.841Z,2.90
2023-04-01T23:18:38.156Z,2.90
2023-04-01T23:21:05.070Z,2.90
2023-04-01T23:23:40.039Z,2.80
2023-04-01T23:26:25.995Z,2.80
2023-04-01T23:28:57.324Z,2.70
2023-04-01T23:31:27.304Z,2.70
2023-04-01T23:33:57.983Z,2.70
2023-04-01T23:36:25.155Z,2.70
2023-04-01T23:38:52.151Z,2.70
2023-04-01T23:41:37.316Z,2.70
2023-04-01T23:44:04.129Z,2.70
2023-04-01T23:46:33.480Z,2.60
2023-04-01T23:49:01.477Z,2.60
2023-04-01T23:51:30.115Z,2.60
2023-04-01T23:53:58.178Z,2.60
2023-04-01T23:56:34.584Z,2.50
2023-04-01T23:59:02.789Z,2.50
